createdAt,value
2018-12-20T00:03:42.332Z,9.43
2018-12-20T00:08:43.222Z,9.93
2018-12-20T00:13:44.302Z,11.63
2018-12-20T00:18:45.301Z,9.87
2018-12-20T00:23:46.089Z,9.40
2018-12-20T00:28:47.650Z,11.23
2018-12-20T00:33:48.847Z,8.93
2018-12-20T00:38:49.939Z,8.57
2018-12-20T00:43:50.973Z,9.17
2018-12-20T00:48:53.777Z,8.70
2018-12-20T00:53:54.966Z,9.40
2018-12-20T00:58:56.174Z,9.27
2018-12-20T01:03:57.056Z,10.67
2018-12-20T01:08:58.537Z,11.33
2018-12-20T01:14:17.885Z,11.57
2018-12-20T01:19:24.283Z,12.37
2018-12-20T01:24:25.290Z,11.07
2018-12-20T01:29:27.109Z,11.27
2018-12-20T01:34:28.444Z,10.93
2018-12-20T01:39:29.429Z,10.17
2018-12-20T01:44:30.722Z,10.70
2018-12-20T01:49:31.843Z,6.53
2018-12-20T01:54:32.765Z,7.00
2018-12-20T01:59:33.772Z,5.87
2018-12-20T02:04:34.819Z,7.03
2018-12-20T02:09:35.524Z,8.40
2018-12-20T02:14:36.518Z,10.07
2018-12-20T02:19:37.433Z,9.63
2018-12-20T02:24:38.378Z,8.67
2018-12-20T02:29:39.200Z,9.97
2018-12-20T02:34:40.330Z,9.30
2018-12-20T02:39:41.248Z,10.30
2018-12-20T02:44:42.171Z,9.13
2018-12-20T02:49:43.434Z,10.70
2018-12-20T02:54:44.400Z,10.00
2018-12-20T02:59:45.205Z,9.33
2018-12-20T03:04:46.394Z,9.10
2018-12-20T03:09:47.065Z,9.27
2018-12-20T03:14:48.054Z,9.13
2018-12-20T03:19:49.092Z,9.70
2018-12-20T03:24:50.060Z,8.57
2018-12-20T03:29:50.918Z,11.10
2018-12-20T03:34:52.841Z,9.07
2018-12-20T03:39:53.821Z,10.00
2018-12-20T03:44:54.799Z,8.53
2018-12-20T03:49:56.036Z,9.10
2018-12-20T03:54:57.065Z,9.07
2018-12-20T03:59:58.187Z,7.37
2018-12-20T04:04:59.059Z,7.03
2018-12-20T04:10:01.095Z,7.07
2018-12-20T04:31:43.538Z,8.07
2018-12-20T04:53:27.040Z,9.03
2018-12-20T04:58:31.395Z,7.33
2018-12-20T05:03:33.421Z,8.03
2018-12-20T05:08:34.355Z,9.27
2018-12-20T05:13:35.407Z,8.77
2018-12-20T05:18:36.269Z,9.23
2018-12-20T05:23:37.316Z,8.27
2018-12-20T05:28:38.165Z,8.77
2018-12-20T05:33:38.824Z,8.57
2018-12-20T05:38:39.638Z,7.77
2018-12-20T05:43:40.385Z,6.83
2018-12-20T05:48:41.149Z,8.57
2018-12-20T05:53:42.127Z,7.70
2018-12-20T05:58:44.571Z,7.30
2018-12-20T06:03:45.848Z,6.90
2018-12-20T06:08:46.744Z,7.20
2018-12-20T06:13:47.490Z,8.17
2018-12-20T06:18:48.445Z,8.23
2018-12-20T06:23:49.246Z,7.20
2018-12-20T06:28:50.045Z,6.67
2018-12-20T06:33:50.956Z,8.43
2018-12-20T06:38:51.733Z,7.73
2018-12-20T06:43:52.333Z,6.80
2018-12-20T06:48:53.075Z,6.53
2018-12-20T06:53:53.906Z,6.40
2018-12-20T06:58:54.553Z,6.53
2018-12-20T07:03:55.360Z,8.27
2018-12-20T07:08:56.183Z,6.37
2018-12-20T07:13:56.824Z,6.93
2018-12-20T07:18:57.636Z,7.43
2018-12-20T07:23:58.417Z,6.87
2018-12-20T07:28:59.182Z,6.73
2018-12-20T07:33:59.962Z,7.13
2018-12-20T07:39:00.763Z,7.37
2018-12-20T07:44:03.348Z,7.03
2018-12-20T07:49:04.143Z,6.07
2018-12-20T07:54:04.974Z,6.30
2018-12-20T07:59:05.883Z,6.30
2018-12-20T08:04:06.672Z,6.63
2018-12-20T08:09:08.480Z,7.30
2018-12-20T08:14:09.352Z,6.23
2018-12-20T08:19:10.047Z,7.37
2018-12-20T08:24:10.784Z,7.43
2018-12-20T08:29:11.595Z,7.57
2018-12-20T08:34:12.385Z,5.80
2018-12-20T08:39:13.201Z,4.40
2018-12-20T08:44:14.039Z,4.67
2018-12-20T08:49:14.874Z,4.07
2018-12-20T08:54:15.708Z,3.20
2018-12-20T08:59:16.447Z,3.70
2018-12-20T09:04:17.219Z,3.43
2018-12-20T09:09:18.054Z,4.30
2018-12-20T09:14:18.836Z,3.67
2018-12-20T09:19:19.673Z,3.17
2018-12-20T09:24:20.336Z,3.10
2018-12-20T09:29:22.150Z,3.20
2018-12-20T09:34:22.839Z,2.93
2018-12-20T09:39:23.784Z,3.53
2018-12-20T09:44:24.421Z,4.53
2018-12-20T09:49:26.301Z,3.93
2018-12-20T09:54:26.920Z,5.37
2018-12-20T09:59:27.711Z,5.47
2018-12-20T10:04:28.571Z,5.60
2018-12-20T10:09:31.430Z,5.83
2018-12-20T10:14:32.100Z,4.43
2018-12-20T10:19:33.406Z,4.83
2018-12-20T10:24:34.298Z,5.10
2018-12-20T10:29:35.342Z,5.10
2018-12-20T10:34:36.126Z,4.40
2018-12-20T10:39:36.842Z,5.53
2018-12-20T10:44:37.637Z,4.13
2018-12-20T10:49:38.425Z,4.53
2018-12-20T10:54:39.198Z,3.83
2018-12-20T10:59:40.511Z,2.00
2018-12-20T11:04:46.478Z,1.20
2018-12-20T11:09:52.376Z,1.60
2018-12-20T11:14:53.412Z,1.30
2018-12-20T11:19:54.273Z,0.90
2018-12-20T11:24:55.378Z,1.30
2018-12-20T11:29:56.153Z,1.67
2018-12-20T11:34:56.988Z,1.20
2018-12-20T11:39:59.768Z,1.10
2018-12-20T11:45:00.689Z,1.20
2018-12-20T11:50:06.793Z,1.50
2018-12-20T11:55:07.550Z,1.20
2018-12-20T12:00:10.391Z,1.37
2018-12-20T12:05:11.235Z,1.40
2018-12-20T12:10:12.018Z,1.60
2018-12-20T12:15:13.824Z,1.77
2018-12-20T12:20:14.616Z,1.83
2018-12-20T12:25:15.348Z,2.93
2018-12-20T12:30:16.195Z,2.07
2018-12-20T12:35:18.007Z,2.30
2018-12-20T12:40:19.005Z,2.00
2018-12-20T12:45:19.789Z,3.03
2018-12-20T12:50:21.968Z,2.27
2018-12-20T12:55:23.516Z,2.33
2018-12-20T13:00:24.540Z,2.27
2018-12-20T13:05:25.276Z,3.50
2018-12-20T13:10:26.079Z,3.90
2018-12-20T13:20:47.256Z,5.43
2018-12-20T13:25:47.954Z,3.80
2018-12-20T13:30:48.717Z,5.07
2018-12-20T13:35:49.510Z,3.30
2018-12-20T13:40:50.329Z,2.80
2018-12-20T13:45:51.144Z,1.10
2018-12-20T13:50:52.046Z,1.40
2018-12-20T13:55:52.950Z,1.53
2018-12-20T14:00:53.817Z,1.20
2018-12-20T14:05:54.562Z,0.90
2018-12-20T14:10:55.296Z,1.10
2018-12-20T14:15:56.087Z,1.60
2018-12-20T14:20:56.916Z,1.67
2018-12-20T14:25:58.194Z,1.50
2018-12-20T14:30:58.873Z,1.30
2018-12-20T14:36:00.520Z,1.20
2018-12-20T14:41:01.649Z,1.60
2018-12-20T14:46:02.525Z,1.40
2018-12-20T14:51:03.282Z,1.43
2018-12-20T14:56:04.250Z,1.20
2018-12-20T15:01:05.047Z,1.00
2018-12-20T15:06:05.946Z,1.23
2018-12-20T15:11:06.718Z,1.17
2018-12-20T15:16:07.488Z,1.30
2018-12-20T15:21:08.284Z,1.20
2018-12-20T15:26:09.185Z,1.63
2018-12-20T15:31:09.978Z,1.50
2018-12-20T15:36:10.816Z,1.97
2018-12-20T15:41:12.511Z,2.30
2018-12-20T15:46:13.736Z,1.80
2018-12-20T15:51:14.659Z,2.00
2018-12-20T15:56:15.463Z,1.33
2018-12-20T16:01:16.276Z,2.13
2018-12-20T16:06:17.139Z,1.60
2018-12-20T16:11:17.988Z,1.93
2018-12-20T16:16:18.739Z,2.37
2018-12-20T16:21:19.580Z,2.50
2018-12-20T16:26:20.406Z,2.73
2018-12-20T16:31:21.280Z,2.43
2018-12-20T16:58:43.750Z,3.10
2018-12-20T17:03:44.592Z,2.40
2018-12-20T17:08:48.282Z,2.10
2018-12-20T17:24:51.509Z,2.27
2018-12-20T17:29:55.234Z,2.20
2018-12-20T17:34:56.071Z,4.07
2018-12-20T17:39:57.111Z,3.53
2018-12-20T17:44:57.941Z,2.60
2018-12-20T17:49:59.789Z,2.67
2018-12-20T17:55:00.613Z,2.23
2018-12-20T18:00:01.328Z,2.77
2018-12-20T18:05:06.837Z,2.40
2018-12-20T18:10:08.444Z,2.67
2018-12-20T18:15:10.775Z,3.10
2018-12-20T18:20:12.103Z,3.30
2018-12-20T18:25:12.971Z,3.00
2018-12-20T18:30:13.807Z,5.00
2018-12-20T18:35:15.062Z,3.27
2018-12-20T18:40:16.160Z,5.27
2018-12-20T18:45:16.951Z,4.60
2018-12-20T18:50:17.763Z,4.90
2018-12-20T19:00:53.232Z,5.07
2018-12-20T19:05:55.221Z,7.77
2018-12-20T19:10:56.125Z,4.60
2018-12-20T19:15:56.926Z,2.93
2018-12-20T19:20:58.635Z,2.53
2018-12-20T19:25:59.424Z,2.50
2018-12-20T19:31:00.214Z,2.43
2018-12-20T19:36:00.897Z,2.83
2018-12-20T19:41:01.628Z,5.77
2018-12-20T19:46:02.379Z,3.97
2018-12-20T19:51:03.363Z,3.33
2018-12-20T19:56:04.243Z,3.60
2018-12-20T20:01:05.069Z,3.33
2018-12-20T20:06:05.874Z,2.60
2018-12-20T20:11:06.586Z,2.93
2018-12-20T20:16:07.469Z,2.33
2018-12-20T20:21:08.288Z,4.20
2018-12-20T20:26:09.218Z,3.37
2018-12-20T20:31:10.977Z,3.30
2018-12-20T20:36:11.776Z,3.03
2018-12-20T20:41:12.653Z,2.43
2018-12-20T20:46:13.613Z,2.87
2018-12-20T20:51:15.108Z,2.87
2018-12-20T20:56:15.925Z,3.73
2018-12-20T21:01:17.071Z,3.23
2018-12-20T21:06:18.913Z,8.80
2018-12-20T21:11:19.835Z,4.93
2018-12-20T21:16:20.539Z,10.80
2018-12-20T21:21:21.414Z,7.47
2018-12-20T21:26:22.473Z,7.17
2018-12-20T21:31:23.432Z,11.20
2018-12-20T21:36:24.181Z,17.63
2018-12-20T21:41:24.852Z,13.13
2018-12-20T21:46:25.703Z,8.47
2018-12-20T21:51:26.560Z,5.87
2018-12-20T21:56:27.427Z,5.97
2018-12-20T22:01:28.324Z,6.87
2018-12-20T22:06:29.210Z,7.63
2018-12-20T22:11:30.028Z,5.47
2018-12-20T22:16:37.016Z,3.67
2018-12-20T22:21:37.699Z,3.57
2018-12-20T22:26:38.403Z,2.80
2018-12-20T22:31:39.752Z,5.27
2018-12-20T22:36:40.576Z,4.40
2018-12-20T22:41:41.423Z,4.50
2018-12-20T22:46:42.265Z,4.67
2018-12-20T22:51:43.114Z,3.80
2018-12-20T22:56:44.023Z,3.57
2018-12-20T23:01:45.015Z,2.67
2018-12-20T23:06:45.921Z,2.80
2018-12-20T23:11:47.192Z,2.93
2018-12-20T23:16:53.698Z,2.60
2018-12-20T23:21:52.599Z,2.47
2018-12-20T23:26:53.330Z,2.60
2018-12-20T23:31:54.055Z,2.27
2018-12-20T23:36:55.006Z,2.20
2018-12-20T23:41:55.826Z,2.37
2018-12-20T23:46:56.735Z,2.23
2018-12-20T23:51:57.660Z,2.53
2018-12-20T23:56:58.956Z,2.63
